sensor_id;sensor_type;location;lat;lon;timestamp;P1;durP1;ratioP1;P2;durP2;ratioP2
70866;SDS011;58487;53.474;49.470;2024-03-08T00:01:35;4.75;;;1.40;;
70866;SDS011;58487;53.474;49.470;2024-03-08T00:04:01;6.25;;;1.48;;
70866;SDS011;58487;53.474;49.470;2024-03-08T00:06:28;4.45;;;1.40;;
70866;SDS011;58487;53.474;49.470;2024-03-08T00:08:54;4.13;;;1.40;;
70866;SDS011;58487;53.474;49.470;2024-03-08T00:11:23;4.22;;;1.40;;
70866;SDS011;58487;53.474;49.470;2024-03-08T00:13:54;4.22;;;1.27;;
70866;SDS011;58487;53.474;49.470;2024-03-08T00:16:20;4.97;;;1.10;;
70866;SDS011;58487;53.474;49.470;2024-03-08T00:18:48;4.18;;;1.30;;
70866;SDS011;58487;53.474;49.470;2024-03-08T00:21:14;5.70;;;1.70;;
70866;SDS011;58487;53.474;49.470;2024-03-08T00:23:41;4.88;;;1.73;;
70866;SDS011;58487;53.474;49.470;2024-03-08T00:26:07;5.28;;;1.40;;
70866;SDS011;58487;53.474;49.470;2024-03-08T00:28:33;4.63;;;1.50;;
70866;SDS011;58487;53.474;49.470;2024-03-08T00:31:01;3.63;;;1.27;;
70866;SDS011;58487;53.474;49.470;2024-03-08T00:33:27;5.28;;;1.60;;
70866;SDS011;58487;53.474;49.470;2024-03-08T00:35:57;5.40;;;1.60;;
70866;SDS011;58487;53.474;49.470;2024-03-08T00:38:28;5.03;;;2.00;;
70866;SDS011;58487;53.474;49.470;2024-03-08T00:40:54;4.78;;;1.70;;
70866;SDS011;58487;53.474;49.470;2024-03-08T00:43:21;5.20;;;1.80;;
70866;SDS011;58487;53.474;49.470;2024-03-08T00:45:47;4.82;;;1.52;;
70866;SDS011;58487;53.474;49.470;2024-03-08T00:48:13;5.55;;;1.83;;
70866;SDS011;58487;53.474;49.470;2024-03-08T00:50:39;5.82;;;1.92;;
70866;SDS011;58487;53.474;49.470;2024-03-08T00:53:05;5.68;;;1.75;;
70866;SDS011;58487;53.474;49.470;2024-03-08T00:55:31;6.87;;;1.73;;
70866;SDS011;58487;53.474;49.470;2024-03-08T00:57:58;6.43;;;2.00;;
70866;SDS011;58487;53.474;49.470;2024-03-08T01:00:24;6.43;;;2.20;;
70866;SDS011;58487;53.474;49.470;2024-03-08T01:02:51;4.45;;;1.20;;
70866;SDS011;58487;53.474;49.470;2024-03-08T01:05:17;6.18;;;2.08;;
70866;SDS011;58487;53.474;49.470;2024-03-08T01:07:43;5.73;;;2.30;;
70866;SDS011;58487;53.474;49.470;2024-03-08T01:10:11;6.40;;;2.25;;
70866;SDS011;58487;53.474;49.470;2024-03-08T01:12:40;8.18;;;2.70;;
70866;SDS011;58487;53.474;49.470;2024-03-08T01:15:11;9.07;;;3.35;;
70866;SDS011;58487;53.474;49.470;2024-03-08T01:17:37;10.07;;;3.33;;
70866;SDS011;58487;53.474;49.470;2024-03-08T01:20:04;6.17;;;2.43;;
70866;SDS011;58487;53.474;49.470;2024-03-08T01:22:32;6.32;;;2.15;;
70866;SDS011;58487;53.474;49.470;2024-03-08T01:24:58;7.93;;;2.42;;
70866;SDS011;58487;53.474;49.470;2024-03-08T01:27:25;9.57;;;2.38;;
70866;SDS011;58487;53.474;49.470;2024-03-08T01:29:51;17.30;;;2.63;;
70866;SDS011;58487;53.474;49.470;2024-03-08T01:32:17;6.07;;;2.53;;
70866;SDS011;58487;53.474;49.470;2024-03-08T01:34:44;6.13;;;1.95;;
70866;SDS011;58487;53.474;49.470;2024-03-08T01:37:10;9.23;;;2.03;;
70866;SDS011;58487;53.474;49.470;2024-03-08T01:39:37;7.78;;;3.10;;
70866;SDS011;58487;53.474;49.470;2024-03-08T01:42:03;9.80;;;3.30;;
70866;SDS011;58487;53.474;49.470;2024-03-08T01:44:29;7.07;;;2.67;;
70866;SDS011;58487;53.474;49.470;2024-03-08T01:46:55;7.03;;;2.70;;
70866;SDS011;58487;53.474;49.470;2024-03-08T01:49:21;8.98;;;3.72;;
70866;SDS011;58487;53.474;49.470;2024-03-08T01:51:51;7.93;;;3.00;;
70866;SDS011;58487;53.474;49.470;2024-03-08T01:54:18;5.30;;;2.25;;
70866;SDS011;58487;53.474;49.470;2024-03-08T01:56:45;6.00;;;2.13;;
70866;SDS011;58487;53.474;49.470;2024-03-08T01:59:17;10.90;;;2.30;;
70866;SDS011;58487;53.474;49.470;2024-03-08T02:01:43;7.35;;;2.35;;
70866;SDS011;58487;53.474;49.470;2024-03-08T02:04:09;7.05;;;1.88;;
70866;SDS011;58487;53.474;49.470;2024-03-08T02:06:36;7.75;;;2.95;;
70866;SDS011;58487;53.474;49.470;2024-03-08T02:09:06;7.07;;;2.63;;
70866;SDS011;58487;53.474;49.470;2024-03-08T02:11:33;6.60;;;2.05;;
70866;SDS011;58487;53.474;49.470;2024-03-08T02:14:01;6.82;;;2.33;;
70866;SDS011;58487;53.474;49.470;2024-03-08T02:16:27;7.57;;;2.45;;
70866;SDS011;58487;53.474;49.470;2024-03-08T02:18:53;10.93;;;2.25;;
70866;SDS011;58487;53.474;49.470;2024-03-08T02:21:19;6.60;;;1.60;;
70866;SDS011;58487;53.474;49.470;2024-03-08T02:23:46;5.78;;;1.60;;
70866;SDS011;58487;53.474;49.470;2024-03-08T02:26:12;9.38;;;2.63;;
70866;SDS011;58487;53.474;49.470;2024-03-08T02:28:38;3.83;;;1.23;;
70866;SDS011;58487;53.474;49.470;2024-03-08T02:31:05;5.50;;;1.92;;
70866;SDS011;58487;53.474;49.470;2024-03-08T02:33:33;5.90;;;1.38;;
70866;SDS011;58487;53.474;49.470;2024-03-08T02:36:00;4.70;;;1.40;;
70866;SDS011;58487;53.474;49.470;2024-03-08T02:38:27;4.53;;;1.25;;
70866;SDS011;58487;53.474;49.470;2024-03-08T02:40:53;4.45;;;1.45;;
70866;SDS011;58487;53.474;49.470;2024-03-08T02:43:20;4.28;;;1.30;;
70866;SDS011;58487;53.474;49.470;2024-03-08T02:45:53;3.60;;;1.58;;
70866;SDS011;58487;53.474;49.470;2024-03-08T02:48:19;4.15;;;1.60;;
70866;SDS011;58487;53.474;49.470;2024-03-08T02:50:46;5.18;;;1.60;;
70866;SDS011;58487;53.474;49.470;2024-03-08T02:53:15;2.22;;;0.77;;
70866;SDS011;58487;53.474;49.470;2024-03-08T02:55:41;3.97;;;1.37;;
70866;SDS011;58487;53.474;49.470;2024-03-08T02:58:07;3.92;;;1.05;;
70866;SDS011;58487;53.474;49.470;2024-03-08T03:00:35;3.13;;;1.63;;
70866;SDS011;58487;53.474;49.470;2024-03-08T03:03:02;9.50;;;1.90;;
70866;SDS011;58487;53.474;49.470;2024-03-08T03:05:28;5.40;;;1.85;;
70866;SDS011;58487;53.474;49.470;2024-03-08T03:07:55;7.03;;;1.77;;
70866;SDS011;58487;53.474;49.470;2024-03-08T03:10:23;5.35;;;1.73;;
70866;SDS011;58487;53.474;49.470;2024-03-08T03:12:50;5.45;;;1.52;;
70866;SDS011;58487;53.474;49.470;2024-03-08T03:15:16;5.47;;;1.58;;
70866;SDS011;58487;53.474;49.470;2024-03-08T03:17:49;5.55;;;1.75;;
70866;SDS011;58487;53.474;49.470;2024-03-08T03:20:19;5.70;;;1.70;;
70866;SDS011;58487;53.474;49.470;2024-03-08T03:22:51;5.57;;;1.70;;
70866;SDS011;58487;53.474;49.470;2024-03-08T03:25:19;6.75;;;1.65;;
70866;SDS011;58487;53.474;49.470;2024-03-08T03:27:59;5.07;;;1.90;;
70866;SDS011;58487;53.474;49.470;2024-03-08T03:30:25;6.55;;;1.80;;
70866;SDS011;58487;53.474;49.470;2024-03-08T03:33:02;4.63;;;1.60;;
70866;SDS011;58487;53.474;49.470;2024-03-08T03:35:32;5.60;;;1.85;;
70866;SDS011;58487;53.474;49.470;2024-03-08T03:37:59;5.40;;;1.83;;
70866;SDS011;58487;53.474;49.470;2024-03-08T03:40:34;7.90;;;2.13;;
70866;SDS011;58487;53.474;49.470;2024-03-08T03:43:01;3.28;;;1.25;;
70866;SDS011;58487;53.474;49.470;2024-03-08T03:45:28;6.03;;;1.97;;
70866;SDS011;58487;53.474;49.470;2024-03-08T03:47:55;4.32;;;1.33;;
70866;SDS011;58487;53.474;49.470;2024-03-08T03:50:21;6.45;;;2.13;;
70866;SDS011;58487;53.474;49.470;2024-03-08T03:52:49;23.02;;;1.80;;
70866;SDS011;58487;53.474;49.470;2024-03-08T03:55:15;5.55;;;1.88;;
70866;SDS011;58487;53.474;49.470;2024-03-08T03:57:41;4.82;;;1.75;;
70866;SDS011;58487;53.474;49.470;2024-03-08T04:00:09;5.13;;;1.35;;
70866;SDS011;58487;53.474;49.470;2024-03-08T04:02:38;5.72;;;1.50;;
70866;SDS011;58487;53.474;49.470;2024-03-08T04:05:05;3.72;;;1.33;;
70866;SDS011;58487;53.474;49.470;2024-03-08T04:07:32;7.30;;;1.98;;
70866;SDS011;58487;53.474;49.470;2024-03-08T04:09:58;5.05;;;1.45;;
70866;SDS011;58487;53.474;49.470;2024-03-08T04:12:24;5.13;;;2.00;;
70866;SDS011;58487;53.474;49.470;2024-03-08T04:14:50;4.82;;;1.58;;
70866;SDS011;58487;53.474;49.470;2024-03-08T04:17:16;5.00;;;1.75;;
70866;SDS011;58487;53.474;49.470;2024-03-08T04:19:43;4.43;;;1.83;;
70866;SDS011;58487;53.474;49.470;2024-03-08T04:22:09;6.15;;;1.63;;
70866;SDS011;58487;53.474;49.470;2024-03-08T04:24:36;4.25;;;1.30;;
70866;SDS011;58487;53.474;49.470;2024-03-08T04:27:02;6.53;;;2.45;;
70866;SDS011;58487;53.474;49.470;2024-03-08T04:29:28;5.25;;;2.00;;
70866;SDS011;58487;53.474;49.470;2024-03-08T04:31:54;5.07;;;1.80;;
70866;SDS011;58487;53.474;49.470;2024-03-08T04:34:20;6.97;;;1.95;;
70866;SDS011;58487;53.474;49.470;2024-03-08T04:36:50;7.43;;;1.77;;
70866;SDS011;58487;53.474;49.470;2024-03-08T04:39:16;6.75;;;2.40;;
70866;SDS011;58487;53.474;49.470;2024-03-08T04:41:44;6.82;;;1.85;;
70866;SDS011;58487;53.474;49.470;2024-03-08T04:44:11;7.60;;;2.03;;
70866;SDS011;58487;53.474;49.470;2024-03-08T04:46:38;7.13;;;2.65;;
70866;SDS011;58487;53.474;49.470;2024-03-08T04:49:04;6.07;;;2.13;;
70866;SDS011;58487;53.474;49.470;2024-03-08T04:51:30;5.93;;;2.13;;
70866;SDS011;58487;53.474;49.470;2024-03-08T04:53:56;7.18;;;2.50;;
70866;SDS011;58487;53.474;49.470;2024-03-08T04:56:22;8.33;;;2.07;;
70866;SDS011;58487;53.474;49.470;2024-03-08T04:58:48;7.13;;;1.92;;
70866;SDS011;58487;53.474;49.470;2024-03-08T05:01:14;4.60;;;1.60;;
70866;SDS011;58487;53.474;49.470;2024-03-08T05:03:40;7.03;;;2.60;;
70866;SDS011;58487;53.474;49.470;2024-03-08T05:06:06;5.70;;;2.22;;
70866;SDS011;58487;53.474;49.470;2024-03-08T05:08:33;3.73;;;1.77;;
70866;SDS011;58487;53.474;49.470;2024-03-08T05:11:01;4.35;;;1.58;;
70866;SDS011;58487;53.474;49.470;2024-03-08T05:13:30;6.00;;;2.30;;
70866;SDS011;58487;53.474;49.470;2024-03-08T05:15:56;4.95;;;1.33;;
70866;SDS011;58487;53.474;49.470;2024-03-08T05:18:24;4.65;;;1.88;;
70866;SDS011;58487;53.474;49.470;2024-03-08T05:20:50;6.33;;;2.03;;
70866;SDS011;58487;53.474;49.470;2024-03-08T05:23:17;5.93;;;1.67;;
70866;SDS011;58487;53.474;49.470;2024-03-08T05:25:45;5.47;;;1.80;;
70866;SDS011;58487;53.474;49.470;2024-03-08T05:28:14;6.10;;;2.30;;
70866;SDS011;58487;53.474;49.470;2024-03-08T05:30:40;4.63;;;1.80;;
70866;SDS011;58487;53.474;49.470;2024-03-08T05:33:06;5.23;;;1.73;;
70866;SDS011;58487;53.474;49.470;2024-03-08T05:35:36;5.68;;;1.88;;
70866;SDS011;58487;53.474;49.470;2024-03-08T05:38:02;6.13;;;2.42;;
70866;SDS011;58487;53.474;49.470;2024-03-08T05:40:28;6.13;;;2.17;;
70866;SDS011;58487;53.474;49.470;2024-03-08T05:43:00;7.20;;;2.38;;
70866;SDS011;58487;53.474;49.470;2024-03-08T05:45:30;5.40;;;1.93;;
70866;SDS011;58487;53.474;49.470;2024-03-08T05:47:56;5.10;;;1.67;;
70866;SDS011;58487;53.474;49.470;2024-03-08T05:50:22;9.43;;;2.47;;
70866;SDS011;58487;53.474;49.470;2024-03-08T05:52:48;7.70;;;2.40;;
70866;SDS011;58487;53.474;49.470;2024-03-08T05:55:15;7.18;;;2.13;;
70866;SDS011;58487;53.474;49.470;2024-03-08T05:57:41;5.72;;;2.20;;
70866;SDS011;58487;53.474;49.470;2024-03-08T06:00:08;7.95;;;2.65;;
70866;SDS011;58487;53.474;49.470;2024-03-08T06:02:38;5.40;;;2.05;;
70866;SDS011;58487;53.474;49.470;2024-03-08T06:05:09;6.00;;;2.33;;
70866;SDS011;58487;53.474;49.470;2024-03-08T06:07:37;5.10;;;1.88;;
70866;SDS011;58487;53.474;49.470;2024-03-08T06:10:10;5.25;;;1.75;;
70866;SDS011;58487;53.474;49.470;2024-03-08T06:12:38;8.48;;;2.42;;
70866;SDS011;58487;53.474;49.470;2024-03-08T06:15:07;5.90;;;2.17;;
70866;SDS011;58487;53.474;49.470;2024-03-08T06:17:35;7.97;;;2.17;;
70866;SDS011;58487;53.474;49.470;2024-03-08T06:20:02;7.93;;;2.53;;
70866;SDS011;58487;53.474;49.470;2024-03-08T06:22:29;8.13;;;2.43;;
70866;SDS011;58487;53.474;49.470;2024-03-08T06:25:08;8.70;;;3.03;;
70866;SDS011;58487;53.474;49.470;2024-03-08T06:27:36;6.78;;;2.60;;
70866;SDS011;58487;53.474;49.470;2024-03-08T06:30:02;6.80;;;2.42;;
70866;SDS011;58487;53.474;49.470;2024-03-08T06:32:30;7.63;;;3.10;;
70866;SDS011;58487;53.474;49.470;2024-03-08T06:35:01;6.40;;;2.37;;
70866;SDS011;58487;53.474;49.470;2024-03-08T06:37:28;8.38;;;3.20;;
70866;SDS011;58487;53.474;49.470;2024-03-08T06:39:54;7.85;;;3.28;;
70866;SDS011;58487;53.474;49.470;2024-03-08T06:42:20;9.13;;;2.85;;
70866;SDS011;58487;53.474;49.470;2024-03-08T06:44:47;7.15;;;2.80;;
70866;SDS011;58487;53.474;49.470;2024-03-08T06:47:15;8.37;;;3.10;;
70866;SDS011;58487;53.474;49.470;2024-03-08T06:49:45;12.13;;;4.38;;
70866;SDS011;58487;53.474;49.470;2024-03-08T06:52:11;8.63;;;3.28;;
70866;SDS011;58487;53.474;49.470;2024-03-08T06:54:37;12.75;;;3.78;;
70866;SDS011;58487;53.474;49.470;2024-03-08T06:57:04;8.37;;;3.17;;
70866;SDS011;58487;53.474;49.470;2024-03-08T06:59:31;5.28;;;2.13;;
70866;SDS011;58487;53.474;49.470;2024-03-08T07:01:57;7.78;;;2.85;;
70866;SDS011;58487;53.474;49.470;2024-03-08T07:04:25;6.93;;;3.13;;
70866;SDS011;58487;53.474;49.470;2024-03-08T07:07:01;9.63;;;2.95;;
70866;SDS011;58487;53.474;49.470;2024-03-08T07:09:32;7.53;;;3.20;;
70866;SDS011;58487;53.474;49.470;2024-03-08T07:11:58;6.35;;;2.40;;
70866;SDS011;58487;53.474;49.470;2024-03-08T07:14:24;9.45;;;3.53;;
70866;SDS011;58487;53.474;49.470;2024-03-08T07:16:50;4.38;;;1.58;;
70866;SDS011;58487;53.474;49.470;2024-03-08T07:19:19;8.07;;;2.75;;
70866;SDS011;58487;53.474;49.470;2024-03-08T07:21:45;11.33;;;2.73;;
70866;SDS011;58487;53.474;49.470;2024-03-08T07:24:13;7.40;;;2.60;;
70866;SDS011;58487;53.474;49.470;2024-03-08T07:26:42;8.25;;;2.88;;
70866;SDS011;58487;53.474;49.470;2024-03-08T07:29:09;9.10;;;3.58;;
70866;SDS011;58487;53.474;49.470;2024-03-08T07:31:35;7.25;;;2.70;;
70866;SDS011;58487;53.474;49.470;2024-03-08T07:34:16;6.53;;;2.57;;
70866;SDS011;58487;53.474;49.470;2024-03-08T07:36:42;9.00;;;3.08;;
70866;SDS011;58487;53.474;49.470;2024-03-08T07:39:10;8.38;;;2.97;;
70866;SDS011;58487;53.474;49.470;2024-03-08T07:41:53;7.03;;;2.53;;
70866;SDS011;58487;53.474;49.470;2024-03-08T07:44:19;7.00;;;2.42;;
70866;SDS011;58487;53.474;49.470;2024-03-08T07:46:45;8.37;;;2.77;;
70866;SDS011;58487;53.474;49.470;2024-03-08T07:49:11;5.28;;;2.10;;
70866;SDS011;58487;53.474;49.470;2024-03-08T07:51:38;8.10;;;2.60;;
70866;SDS011;58487;53.474;49.470;2024-03-08T07:54:04;6.63;;;2.47;;
70866;SDS011;58487;53.474;49.470;2024-03-08T07:56:30;5.05;;;1.90;;
70866;SDS011;58487;53.474;49.470;2024-03-08T07:58:56;4.33;;;1.80;;
70866;SDS011;58487;53.474;49.470;2024-03-08T08:01:22;5.97;;;2.17;;
70866;SDS011;58487;53.474;49.470;2024-03-08T08:03:48;7.60;;;2.72;;
70866;SDS011;58487;53.474;49.470;2024-03-08T08:06:15;9.07;;;3.67;;
70866;SDS011;58487;53.474;49.470;2024-03-08T08:08:42;7.33;;;3.27;;
70866;SDS011;58487;53.474;49.470;2024-03-08T08:11:08;6.80;;;2.55;;
70866;SDS011;58487;53.474;49.470;2024-03-08T08:13:44;7.13;;;2.63;;
70866;SDS011;58487;53.474;49.470;2024-03-08T08:16:10;8.07;;;2.70;;
70866;SDS011;58487;53.474;49.470;2024-03-08T08:18:38;8.13;;;2.50;;
70866;SDS011;58487;53.474;49.470;2024-03-08T08:21:05;7.27;;;2.67;;
70866;SDS011;58487;53.474;49.470;2024-03-08T08:23:34;5.93;;;2.15;;
70866;SDS011;58487;53.474;49.470;2024-03-08T08:26:00;6.50;;;2.83;;
70866;SDS011;58487;53.474;49.470;2024-03-08T08:28:29;9.80;;;3.85;;
70866;SDS011;58487;53.474;49.470;2024-03-08T08:30:56;8.40;;;2.78;;
70866;SDS011;58487;53.474;49.470;2024-03-08T08:33:22;7.63;;;3.03;;
70866;SDS011;58487;53.474;49.470;2024-03-08T08:36:00;6.22;;;2.83;;
70866;SDS011;58487;53.474;49.470;2024-03-08T08:39:00;6.38;;;2.35;;
70866;SDS011;58487;53.474;49.470;2024-03-08T08:41:28;4.82;;;2.67;;
70866;SDS011;58487;53.474;49.470;2024-03-08T08:43:54;5.70;;;2.10;;
70866;SDS011;58487;53.474;49.470;2024-03-08T08:46:20;5.73;;;2.40;;
70866;SDS011;58487;53.474;49.470;2024-03-08T08:48:46;6.03;;;1.80;;
70866;SDS011;58487;53.474;49.470;2024-03-08T08:51:13;6.03;;;2.55;;
70866;SDS011;58487;53.474;49.470;2024-03-08T08:53:39;5.53;;;2.28;;
70866;SDS011;58487;53.474;49.470;2024-03-08T08:56:09;4.93;;;2.00;;
70866;SDS011;58487;53.474;49.470;2024-03-08T08:58:44;6.23;;;2.50;;
70866;SDS011;58487;53.474;49.470;2024-03-08T09:01:10;6.65;;;2.53;;
70866;SDS011;58487;53.474;49.470;2024-03-08T09:03:39;6.03;;;2.50;;
70866;SDS011;58487;53.474;49.470;2024-03-08T09:06:07;4.93;;;2.47;;
70866;SDS011;58487;53.474;49.470;2024-03-08T09:08:37;5.65;;;2.60;;
70866;SDS011;58487;53.474;49.470;2024-03-08T09:11:04;8.03;;;2.73;;
70866;SDS011;58487;53.474;49.470;2024-03-08T09:13:32;10.40;;;2.78;;
70866;SDS011;58487;53.474;49.470;2024-03-08T09:16:04;5.47;;;2.58;;
70866;SDS011;58487;53.474;49.470;2024-03-08T09:18:34;7.35;;;2.78;;
70866;SDS011;58487;53.474;49.470;2024-03-08T09:21:00;6.13;;;2.15;;
70866;SDS011;58487;53.474;49.470;2024-03-08T09:23:26;4.50;;;1.50;;
70866;SDS011;58487;53.474;49.470;2024-03-08T09:25:56;6.80;;;2.30;;
70866;SDS011;58487;53.474;49.470;2024-03-08T09:28:25;7.80;;;3.00;;
70866;SDS011;58487;53.474;49.470;2024-03-08T09:30:52;7.47;;;2.65;;
70866;SDS011;58487;53.474;49.470;2024-03-08T09:33:18;8.20;;;3.28;;
70866;SDS011;58487;53.474;49.470;2024-03-08T09:35:45;9.20;;;3.20;;
70866;SDS011;58487;53.474;49.470;2024-03-08T09:38:16;9.40;;;3.85;;
70866;SDS011;58487;53.474;49.470;2024-03-08T09:40:42;8.98;;;3.83;;
70866;SDS011;58487;53.474;49.470;2024-03-08T09:43:12;8.73;;;4.20;;
70866;SDS011;58487;53.474;49.470;2024-03-08T09:45:38;5.47;;;2.50;;
70866;SDS011;58487;53.474;49.470;2024-03-08T09:48:12;8.60;;;4.43;;
70866;SDS011;58487;53.474;49.470;2024-03-08T09:50:40;11.10;;;4.15;;
70866;SDS011;58487;53.474;49.470;2024-03-08T09:53:06;9.25;;;4.07;;
70866;SDS011;58487;53.474;49.470;2024-03-08T09:55:37;9.30;;;4.10;;
70866;SDS011;58487;53.474;49.470;2024-03-08T09:58:08;9.52;;;4.47;;
70866;SDS011;58487;53.474;49.470;2024-03-08T10:00:56;9.10;;;4.00;;
70866;SDS011;58487;53.474;49.470;2024-03-08T10:03:27;10.15;;;3.83;;
70866;SDS011;58487;53.474;49.470;2024-03-08T10:05:56;8.93;;;4.00;;
70866;SDS011;58487;53.474;49.470;2024-03-08T10:08:28;9.38;;;3.90;;
70866;SDS011;58487;53.474;49.470;2024-03-08T10:10:57;9.05;;;4.05;;
70866;SDS011;58487;53.474;49.470;2024-03-08T10:13:25;9.67;;;6.03;;
70866;SDS011;58487;53.474;49.470;2024-03-08T10:15:54;8.50;;;3.90;;
70866;SDS011;58487;53.474;49.470;2024-03-08T10:18:20;6.90;;;3.58;;
70866;SDS011;58487;53.474;49.470;2024-03-08T10:21:01;9.70;;;4.85;;
70866;SDS011;58487;53.474;49.470;2024-03-08T10:23:32;9.23;;;4.28;;
70866;SDS011;58487;53.474;49.470;2024-03-08T10:26:20;13.20;;;6.37;;
70866;SDS011;58487;53.474;49.470;2024-03-08T10:28:47;9.00;;;3.50;;
70866;SDS011;58487;53.474;49.470;2024-03-08T10:31:18;7.57;;;3.90;;
70866;SDS011;58487;53.474;49.470;2024-03-08T10:33:46;11.00;;;5.32;;
70866;SDS011;58487;53.474;49.470;2024-03-08T10:36:12;11.40;;;4.40;;
70866;SDS011;58487;53.474;49.470;2024-03-08T10:38:40;12.23;;;4.80;;
70866;SDS011;58487;53.474;49.470;2024-03-08T10:41:09;12.13;;;5.18;;
70866;SDS011;58487;53.474;49.470;2024-03-08T10:48:42;11.68;;;5.93;;
70866;SDS011;58487;53.474;49.470;2024-03-08T10:51:11;14.57;;;5.40;;
70866;SDS011;58487;53.474;49.470;2024-03-08T10:53:37;9.90;;;4.22;;
70866;SDS011;58487;53.474;49.470;2024-03-08T10:56:08;10.98;;;4.50;;
70866;SDS011;58487;53.474;49.470;2024-03-08T10:58:35;11.85;;;4.97;;
70866;SDS011;58487;53.474;49.470;2024-03-08T11:01:02;8.82;;;4.60;;
70866;SDS011;58487;53.474;49.470;2024-03-08T11:09:01;11.40;;;5.30;;
70866;SDS011;58487;53.474;49.470;2024-03-08T11:11:31;10.20;;;3.75;;
70866;SDS011;58487;53.474;49.470;2024-03-08T11:14:00;11.73;;;5.22;;
70866;SDS011;58487;53.474;49.470;2024-03-08T11:18:54;9.30;;;4.00;;
70866;SDS011;58487;53.474;49.470;2024-03-08T11:21:22;10.20;;;5.07;;
70866;SDS011;58487;53.474;49.470;2024-03-08T11:26:34;7.30;;;3.28;;
70866;SDS011;58487;53.474;49.470;2024-03-08T11:32:05;8.80;;;2.42;;
70866;SDS011;58487;53.474;49.470;2024-03-08T11:34:32;8.38;;;3.35;;
70866;SDS011;58487;53.474;49.470;2024-03-08T11:36:58;6.72;;;3.35;;
70866;SDS011;58487;53.474;49.470;2024-03-08T11:39:25;7.00;;;2.22;;
70866;SDS011;58487;53.474;49.470;2024-03-08T11:41:51;6.10;;;2.87;;
70866;SDS011;58487;53.474;49.470;2024-03-08T11:44:19;5.97;;;2.55;;
70866;SDS011;58487;53.474;49.470;2024-03-08T11:46:45;7.40;;;2.75;;
70866;SDS011;58487;53.474;49.470;2024-03-08T11:49:14;8.40;;;3.30;;
70866;SDS011;58487;53.474;49.470;2024-03-08T11:51:41;6.25;;;2.92;;
70866;SDS011;58487;53.474;49.470;2024-03-08T11:54:12;8.23;;;2.77;;
70866;SDS011;58487;53.474;49.470;2024-03-08T11:56:38;6.45;;;3.15;;
70866;SDS011;58487;53.474;49.470;2024-03-08T11:59:10;7.10;;;3.20;;
70866;SDS011;58487;53.474;49.470;2024-03-08T12:01:38;6.30;;;2.97;;
70866;SDS011;58487;53.474;49.470;2024-03-08T12:04:04;8.18;;;3.60;;
70866;SDS011;58487;53.474;49.470;2024-03-08T12:06:36;6.73;;;2.50;;
70866;SDS011;58487;53.474;49.470;2024-03-08T12:09:10;5.90;;;2.65;;
70866;SDS011;58487;53.474;49.470;2024-03-08T12:11:38;7.43;;;3.30;;
70866;SDS011;58487;53.474;49.470;2024-03-08T12:14:04;9.70;;;5.43;;
70866;SDS011;58487;53.474;49.470;2024-03-08T12:16:32;8.77;;;4.18;;
70866;SDS011;58487;53.474;49.470;2024-03-08T12:18:58;8.97;;;4.13;;
70866;SDS011;58487;53.474;49.470;2024-03-08T12:21:32;10.95;;;5.00;;
70866;SDS011;58487;53.474;49.470;2024-03-08T12:24:03;9.93;;;5.15;;
70866;SDS011;58487;53.474;49.470;2024-03-08T12:26:29;8.68;;;4.05;;
70866;SDS011;58487;53.474;49.470;2024-03-08T12:31:51;12.37;;;5.20;;
70866;SDS011;58487;53.474;49.470;2024-03-08T12:34:24;10.05;;;4.70;;
70866;SDS011;58487;53.474;49.470;2024-03-08T12:36:51;9.65;;;4.80;;
70866;SDS011;58487;53.474;49.470;2024-03-08T12:39:19;10.82;;;4.88;;
70866;SDS011;58487;53.474;49.470;2024-03-08T12:41:55;10.45;;;4.30;;
70866;SDS011;58487;53.474;49.470;2024-03-08T12:44:25;11.43;;;6.67;;
70866;SDS011;58487;53.474;49.470;2024-03-08T12:46:53;14.88;;;5.78;;
70866;SDS011;58487;53.474;49.470;2024-03-08T12:49:19;10.13;;;4.25;;
70866;SDS011;58487;53.474;49.470;2024-03-08T12:51:48;11.02;;;4.60;;
70866;SDS011;58487;53.474;49.470;2024-03-08T12:54:14;8.55;;;3.80;;
70866;SDS011;58487;53.474;49.470;2024-03-08T12:56:41;12.07;;;4.40;;
70866;SDS011;58487;53.474;49.470;2024-03-08T12:59:07;8.80;;;3.70;;
70866;SDS011;58487;53.474;49.470;2024-03-08T13:01:34;11.18;;;5.88;;
70866;SDS011;58487;53.474;49.470;2024-03-08T13:04:02;12.57;;;5.65;;
70866;SDS011;58487;53.474;49.470;2024-03-08T13:06:29;11.02;;;4.15;;
70866;SDS011;58487;53.474;49.470;2024-03-08T13:08:56;9.53;;;4.77;;
70866;SDS011;58487;53.474;49.470;2024-03-08T13:11:24;7.75;;;3.63;;
70866;SDS011;58487;53.474;49.470;2024-03-08T13:13:51;8.05;;;3.42;;
70866;SDS011;58487;53.474;49.470;2024-03-08T13:16:18;7.63;;;3.15;;
70866;SDS011;58487;53.474;49.470;2024-03-08T13:18:45;7.65;;;3.35;;
70866;SDS011;58487;53.474;49.470;2024-03-08T13:21:14;7.40;;;3.50;;
70866;SDS011;58487;53.474;49.470;2024-03-08T13:23:43;8.90;;;3.47;;
70866;SDS011;58487;53.474;49.470;2024-03-08T13:26:15;8.43;;;3.08;;
70866;SDS011;58487;53.474;49.470;2024-03-08T13:28:45;6.18;;;2.78;;
70866;SDS011;58487;53.474;49.470;2024-03-08T13:31:14;8.40;;;3.42;;
70866;SDS011;58487;53.474;49.470;2024-03-08T13:33:41;6.00;;;2.33;;
70866;SDS011;58487;53.474;49.470;2024-03-08T13:36:11;10.73;;;4.32;;
70866;SDS011;58487;53.474;49.470;2024-03-08T13:38:41;10.82;;;4.55;;
70866;SDS011;58487;53.474;49.470;2024-03-08T13:41:09;12.18;;;3.28;;
70866;SDS011;58487;53.474;49.470;2024-03-08T13:43:45;8.65;;;3.50;;
70866;SDS011;58487;53.474;49.470;2024-03-08T13:46:12;9.13;;;3.77;;
70866;SDS011;58487;53.474;49.470;2024-03-08T13:48:38;7.68;;;3.63;;
70866;SDS011;58487;53.474;49.470;2024-03-08T13:51:04;9.15;;;4.63;;
70866;SDS011;58487;53.474;49.470;2024-03-08T13:53:38;9.20;;;3.85;;
70866;SDS011;58487;53.474;49.470;2024-03-08T13:56:05;10.40;;;4.23;;
70866;SDS011;58487;53.474;49.470;2024-03-08T13:58:32;10.07;;;3.90;;
70866;SDS011;58487;53.474;49.470;2024-03-08T14:00:58;15.13;;;4.72;;
70866;SDS011;58487;53.474;49.470;2024-03-08T14:03:24;8.85;;;4.18;;
70866;SDS011;58487;53.474;49.470;2024-03-08T14:05:50;9.60;;;3.78;;
70866;SDS011;58487;53.474;49.470;2024-03-08T14:08:16;10.83;;;4.83;;
70866;SDS011;58487;53.474;49.470;2024-03-08T14:10:43;10.65;;;4.63;;
70866;SDS011;58487;53.474;49.470;2024-03-08T14:13:12;9.63;;;4.70;;
70866;SDS011;58487;53.474;49.470;2024-03-08T14:15:41;12.80;;;5.22;;
70866;SDS011;58487;53.474;49.470;2024-03-08T14:18:08;13.13;;;6.13;;
70866;SDS011;58487;53.474;49.470;2024-03-08T14:20:34;14.27;;;5.80;;
70866;SDS011;58487;53.474;49.470;2024-03-08T14:23:00;12.27;;;6.22;;
70866;SDS011;58487;53.474;49.470;2024-03-08T14:25:26;13.23;;;5.97;;
70866;SDS011;58487;53.474;49.470;2024-03-08T14:27:55;9.57;;;4.20;;
70866;SDS011;58487;53.474;49.470;2024-03-08T14:30:27;15.85;;;7.25;;
70866;SDS011;58487;53.474;49.470;2024-03-08T14:33:07;11.67;;;5.33;;
70866;SDS011;58487;53.474;49.470;2024-03-08T14:35:36;12.95;;;5.95;;
70866;SDS011;58487;53.474;49.470;2024-03-08T14:38:04;17.00;;;8.15;;
70866;SDS011;58487;53.474;49.470;2024-03-08T14:40:33;15.85;;;5.82;;
70866;SDS011;58487;53.474;49.470;2024-03-08T14:43:01;12.88;;;5.63;;
70866;SDS011;58487;53.474;49.470;2024-03-08T14:45:28;14.47;;;5.53;;
70866;SDS011;58487;53.474;49.470;2024-03-08T14:47:54;11.60;;;5.18;;
70866;SDS011;58487;53.474;49.470;2024-03-08T14:50:21;14.40;;;5.57;;
70866;SDS011;58487;53.474;49.470;2024-03-08T14:52:51;14.75;;;6.10;;
70866;SDS011;58487;53.474;49.470;2024-03-08T14:55:18;10.98;;;4.32;;
70866;SDS011;58487;53.474;49.470;2024-03-08T14:57:48;9.23;;;3.50;;
70866;SDS011;58487;53.474;49.470;2024-03-08T15:00:16;9.27;;;3.58;;